createdAt,value
2017-01-07T08:03:45.534Z,1019.8
2017-01-07T08:04:56.856Z,1019.74
2017-01-07T08:06:07.753Z,1019.74
2017-01-07T08:07:19.070Z,1019.76
2017-01-07T08:08:30.399Z,1019.76
2017-01-07T08:09:41.764Z,1019.71
2017-01-07T08:10:52.653Z,1019.79
2017-01-07T08:12:03.974Z,1019.84
2017-01-07T08:13:15.301Z,1019.79
2017-01-07T08:14:26.656Z,1019.83
2017-01-07T08:15:37.597Z,1019.79
2017-01-07T08:16:48.494Z,1019.75
2017-01-07T08:17:59.388Z,1019.78
2017-01-07T08:19:10.713Z,1019.81
2017-01-07T08:20:22.046Z,1019.8
2017-01-07T08:21:33.419Z,1019.76
2017-01-07T08:22:44.312Z,1019.82
2017-01-07T08:23:55.205Z,1019.75
2017-01-07T08:25:06.526Z,1019.83
2017-01-07T08:26:19.355Z,1019.76
2017-01-07T08:27:35.745Z,1019.74
2017-01-07T08:28:46.686Z,1019.72
2017-01-07T08:29:58.010Z,1019.67
2017-01-07T08:31:08.471Z,1019.61
2017-01-07T08:32:19.793Z,1019.64
2017-01-07T08:33:30.686Z,1019.61
2017-01-07T08:34:41.204Z,1019.6
2017-01-07T08:35:52.524Z,1019.57
2017-01-07T08:37:03.425Z,1019.56
2017-01-07T08:38:14.318Z,1019.54
2017-01-07T08:39:25.648Z,1019.47
2017-01-07T08:40:37.020Z,1019.43
2017-01-07T08:41:47.917Z,1019.36
2017-01-07T08:42:58.818Z,1019.34
2017-01-07T08:44:09.716Z,1019.31
2017-01-07T08:45:20.613Z,1019.33
2017-01-07T08:46:31.985Z,1019.31
2017-01-07T08:47:43.310Z,1019.26
2017-01-07T08:48:54.211Z,1019.29
2017-01-07T08:50:05.548Z,1019.29
2017-01-07T08:51:16.869Z,1019.34
2017-01-07T08:52:27.818Z,1019.35
2017-01-07T08:53:38.720Z,1019.31
2017-01-07T08:54:50.036Z,1019.35
2017-01-07T08:56:00.949Z,1019.33
2017-01-07T08:57:12.274Z,1019.32
2017-01-07T08:58:23.652Z,1019.31
2017-01-07T08:59:34.552Z,1019.27
2017-01-07T09:00:45.453Z,1019.28
2017-01-07T09:01:56.358Z,1019.29
2017-01-07T09:03:06.829Z,1019.28
2017-01-07T09:04:18.200Z,1019.26
2017-01-07T09:05:29.097Z,1019.25
2017-01-07T09:06:39.570Z,1019.25
2017-01-07T09:07:50.899Z,1019.25
2017-01-07T09:09:02.232Z,1019.21
2017-01-07T09:10:13.605Z,1019.21
2017-01-07T09:11:24.506Z,1019.16
2017-01-07T09:12:35.867Z,1019.17
2017-01-07T09:13:45.908Z,1019.14
2017-01-07T09:14:56.801Z,1019.12
2017-01-07T09:16:07.760Z,1019.13
2017-01-07T09:17:18.659Z,1019.15
2017-01-07T09:18:30.000Z,1019.16
2017-01-07T09:19:41.328Z,1019.15
2017-01-07T09:20:52.658Z,1019.12
2017-01-07T09:22:03.175Z,1019.15
2017-01-07T09:23:14.075Z,1019.15
2017-01-07T09:24:25.401Z,1019.14
2017-01-07T09:25:36.294Z,1019.12
2017-01-07T09:26:47.187Z,1019.15
2017-01-07T09:27:58.140Z,1019.11
2017-01-07T09:29:08.173Z,1019.13
2017-01-07T09:30:19.594Z,1019.13
2017-01-07T09:31:32.247Z,1019.01
2017-01-07T09:32:43.148Z,1018.99
2017-01-07T09:33:54.525Z,1019
2017-01-07T09:35:05.858Z,1019.05
2017-01-07T09:36:16.759Z,1019.02
2017-01-07T09:37:28.084Z,1019.05
2017-01-07T09:38:39.442Z,1019.04
2017-01-07T09:39:50.391Z,1019.02
2017-01-07T09:41:01.316Z,1019.05
2017-01-07T09:42:12.217Z,1019.05
2017-01-07T09:43:23.538Z,1019.05
2017-01-07T09:44:34.435Z,1019.1
2017-01-07T09:45:45.408Z,1019.09
2017-01-07T09:46:56.309Z,1019.03
2017-01-07T09:48:07.642Z,1019.05
2017-01-07T09:49:18.539Z,1019.08
2017-01-07T09:50:29.865Z,1019.07
2017-01-07T09:51:40.838Z,1019.1
2017-01-07T09:52:51.739Z,1019.14
2017-01-07T09:54:02.236Z,1019.11
2017-01-07T09:55:13.561Z,1019.12
2017-01-07T09:56:24.890Z,1019.14
2017-01-07T09:57:35.847Z,1019.15
2017-01-07T09:58:47.177Z,1019.15
2017-01-07T09:59:58.081Z,1019.17
2017-01-07T10:01:08.979Z,1019.21
2017-01-07T10:02:20.308Z,1019.17
2017-01-07T10:03:31.694Z,1019.15
2017-01-07T10:04:42.590Z,1019.11
2017-01-07T10:05:53.495Z,1019.11
2017-01-07T10:07:04.820Z,1019.09
2017-01-07T10:08:15.726Z,1019.12
2017-01-07T10:09:27.103Z,1019.09
2017-01-07T10:10:38.004Z,1019.05
2017-01-07T10:11:48.477Z,1019.03
2017-01-07T10:12:59.378Z,1019.06
2017-01-07T10:14:10.287Z,1019.01
2017-01-07T10:15:21.232Z,1019.07
2017-01-07T10:16:32.158Z,1019.03
2017-01-07T10:17:43.487Z,1019.04
2017-01-07T10:18:54.820Z,1019
2017-01-07T10:20:06.157Z,1018.99
2017-01-07T10:21:17.538Z,1018.98
2017-01-07T10:22:28.443Z,1018.9
2017-01-07T10:23:40.049Z,1018.9
2017-01-07T10:24:50.657Z,1018.78
2017-01-07T10:26:01.383Z,1018.81
2017-01-07T10:27:12.772Z,1018.7
2017-01-07T10:28:24.117Z,1018.65
2017-01-07T10:29:35.046Z,1018.65
2017-01-07T10:30:45.703Z,1018.63
2017-01-07T10:31:56.596Z,1018.58
2017-01-07T10:33:08.166Z,1018.59
2017-01-07T10:34:18.639Z,1018.59
2017-01-07T10:35:29.983Z,1018.62
2017-01-07T10:36:40.489Z,1018.61
2017-01-07T10:37:51.486Z,1018.53
2017-01-07T10:39:02.463Z,1018.54
2017-01-07T10:40:12.553Z,1018.54
2017-01-07T10:41:23.502Z,1018.49
2017-01-07T10:42:34.695Z,1018.46
2017-01-07T10:43:46.144Z,1018.42
2017-01-07T10:44:56.801Z,1018.44
2017-01-07T10:46:07.427Z,1018.4
2017-01-07T10:47:18.324Z,1018.42
2017-01-07T10:48:29.057Z,1018.47
2017-01-07T10:49:39.987Z,1018.4
2017-01-07T10:50:51.056Z,1018.4
2017-01-07T10:52:01.997Z,1018.38
2017-01-07T10:53:13.319Z,1018.29
2017-01-07T10:54:24.756Z,1018.24
2017-01-07T10:55:36.077Z,1018.25
2017-01-07T10:56:46.663Z,1018.23
2017-01-07T10:57:57.992Z,1018.26
2017-01-07T10:59:09.097Z,1018.19
2017-01-07T11:00:19.282Z,1018.19
2017-01-07T11:01:30.612Z,1018.11
2017-01-07T11:02:41.593Z,1018.09
2017-01-07T11:03:52.498Z,1018.06
2017-01-07T11:05:03.404Z,1018.12
2017-01-07T11:06:14.009Z,1018.03
2017-01-07T11:07:25.354Z,1018.02
2017-01-07T11:08:36.736Z,1017.99
2017-01-07T11:09:47.221Z,1018.04
2017-01-07T11:10:58.258Z,1017.99
2017-01-07T11:12:09.168Z,1017.95
2017-01-07T11:13:20.065Z,1017.97
2017-01-07T11:14:31.498Z,1017.9
2017-01-07T11:15:42.470Z,1017.93
2017-01-07T11:16:53.797Z,1017.96
2017-01-07T11:18:05.122Z,1017.89
2017-01-07T11:19:16.028Z,1017.84
2017-01-07T11:20:26.989Z,1017.86
2017-01-07T11:21:37.594Z,1017.85
2017-01-07T11:22:48.500Z,1017.84
2017-01-07T11:23:59.853Z,1017.79
2017-01-07T11:25:10.850Z,1017.8
2017-01-07T11:26:21.689Z,1017.83
2017-01-07T11:27:33.441Z,1017.82
2017-01-07T11:28:44.773Z,1017.75
2017-01-07T11:29:55.671Z,1017.72
2017-01-07T11:31:06.560Z,1017.73
2017-01-07T11:32:17.385Z,1017.69
2017-01-07T11:33:27.607Z,1017.72
2017-01-07T11:34:38.700Z,1017.66
2017-01-07T11:35:49.629Z,1017.64
2017-01-07T11:37:00.535Z,1017.62
2017-01-07T11:38:11.708Z,1017.56
2017-01-07T11:39:22.189Z,1017.55
2017-01-07T11:40:33.094Z,1017.53
2017-01-07T11:41:43.995Z,1017.45
2017-01-07T11:42:54.897Z,1017.39
2017-01-07T11:44:06.270Z,1017.42
2017-01-07T11:45:17.603Z,1017.32
2017-01-07T11:46:28.504Z,1017.32
2017-01-07T11:47:39.421Z,1017.3
2017-01-07T11:48:49.543Z,1017.25
2017-01-07T11:50:00.508Z,1017.27
2017-01-07T11:51:11.409Z,1017.31
2017-01-07T11:52:22.731Z,1017.25
2017-01-07T11:53:33.648Z,1017.26
2017-01-07T11:54:44.589Z,1017.24
2017-01-07T11:55:55.994Z,1017.2
2017-01-07T11:57:06.468Z,1017.19
2017-01-07T11:58:17.361Z,1017.22
2017-01-07T11:59:28.695Z,1017.19
2017-01-07T12:00:39.592Z,1017.17
2017-01-07T12:01:50.549Z,1017.05
2017-01-07T12:03:01.883Z,1017.03
2017-01-07T12:04:13.211Z,1017.04
2017-01-07T12:05:24.109Z,1017.01
2017-01-07T12:06:35.011Z,1016.97
2017-01-07T12:07:46.440Z,1016.97
2017-01-07T12:08:57.337Z,1016.99
2017-01-07T12:10:07.810Z,1016.97
2017-01-07T12:11:19.136Z,1016.93
2017-01-07T12:12:30.045Z,1016.88
2017-01-07T12:13:41.418Z,1016.88
2017-01-07T12:14:52.324Z,1016.84
2017-01-07T12:16:03.657Z,1016.85
2017-01-07T12:17:14.979Z,1016.77
2017-01-07T12:18:26.308Z,1016.78
2017-01-07T12:19:37.258Z,1016.78
2017-01-07T12:20:48.590Z,1016.83
2017-01-07T12:21:59.924Z,1016.8
2017-01-07T12:23:11.253Z,1016.79
2017-01-07T12:24:22.150Z,1016.79
2017-01-07T12:25:33.108Z,1016.79
2017-01-07T12:26:44.433Z,1016.79
2017-01-07T12:27:55.758Z,1016.74
2017-01-07T12:29:06.671Z,1016.72
2017-01-07T12:30:17.577Z,1016.73
2017-01-07T12:31:28.626Z,1016.72
2017-01-07T12:32:39.951Z,1016.67
2017-01-07T12:33:50.416Z,1016.63
2017-01-07T12:35:01.318Z,1016.66
2017-01-07T12:36:12.655Z,1016.54
2017-01-07T12:37:23.608Z,1016.53
2017-01-07T12:38:34.506Z,1016.5
2017-01-07T12:39:45.403Z,1016.49
2017-01-07T12:40:56.728Z,1016.42
2017-01-07T12:42:08.053Z,1016.47
2017-01-07T12:43:19.051Z,1016.43
2017-01-07T12:44:30.368Z,1016.39
2017-01-07T12:45:41.697Z,1016.35
2017-01-07T12:46:53.014Z,1016.34
2017-01-07T12:48:04.348Z,1016.36
2017-01-07T12:49:15.301Z,1016.31
2017-01-07T12:50:26.623Z,1016.29
2017-01-07T12:51:37.576Z,1016.29
2017-01-07T12:52:48.469Z,1016.25
2017-01-07T12:53:59.370Z,1016.23
2017-01-07T12:55:10.419Z,1016.2
2017-01-07T12:56:21.345Z,1016.25
2017-01-07T12:57:32.258Z,1016.23
2017-01-07T12:58:43.599Z,1016.22
2017-01-07T12:59:55.020Z,1016.19
2017-01-07T13:01:05.537Z,1016.16
2017-01-07T13:02:16.862Z,1016.13
2017-01-07T13:03:27.442Z,1016.16
2017-01-07T13:04:37.981Z,1016.14
2017-01-07T13:05:48.883Z,1016.15
2017-01-07T13:07:00.379Z,1016.13
2017-01-07T13:08:11.197Z,1016.12
2017-01-07T13:09:22.094Z,1016.04
2017-01-07T13:10:33.111Z,1016.07
2017-01-07T13:11:43.589Z,1015.98
2017-01-07T13:12:54.538Z,1016
2017-01-07T13:14:05.963Z,1016
2017-01-07T13:15:19.112Z,1015.97
2017-01-07T13:16:30.122Z,1016
2017-01-07T13:17:41.075Z,1016
2017-01-07T13:18:52.028Z,1016
2017-01-07T13:20:03.354Z,1015.98
2017-01-07T13:21:14.287Z,1015.98
2017-01-07T13:22:25.616Z,1015.95
2017-01-07T13:23:36.937Z,1015.94
2017-01-07T13:24:48.307Z,1015.89
2017-01-07T13:25:58.868Z,1015.83
2017-01-07T13:27:09.821Z,1015.79
2017-01-07T13:28:20.366Z,1015.84
2017-01-07T13:29:31.271Z,1015.81
2017-01-07T13:30:42.781Z,1015.85
2017-01-07T13:31:53.326Z,1015.88
2017-01-07T13:33:03.491Z,1015.92
2017-01-07T13:34:14.388Z,1015.94
2017-01-07T13:35:24.926Z,1015.91
2017-01-07T13:36:35.443Z,1015.87
2017-01-07T13:37:45.924Z,1015.86
2017-01-07T13:38:57.297Z,1015.85
2017-01-07T13:40:08.223Z,1015.81
2017-01-07T13:41:19.559Z,1015.75
2017-01-07T13:42:30.605Z,1015.72
2017-01-07T13:43:41.542Z,1015.76
2017-01-07T13:44:52.476Z,1015.77
2017-01-07T13:46:02.993Z,1015.77
2017-01-07T13:47:13.894Z,1015.77
2017-01-07T13:48:24.459Z,1015.73
2017-01-07T13:49:35.784Z,1015.66
2017-01-07T13:50:46.778Z,1015.71
2017-01-07T13:51:58.151Z,1015.64
2017-01-07T13:53:08.836Z,1015.57
2017-01-07T13:54:19.349Z,1015.58
2017-01-07T13:55:29.927Z,1015.52
2017-01-07T13:56:40.832Z,1015.5
2017-01-07T13:57:51.773Z,1015.49
2017-01-07T13:59:03.151Z,1015.46
2017-01-07T14:00:14.106Z,1015.41
2017-01-07T14:01:25.433Z,1015.39
2017-01-07T14:02:36.758Z,1015.41
2017-01-07T14:03:47.659Z,1015.34
2017-01-07T14:04:58.556Z,1015.37
2017-01-07T14:06:09.942Z,1015.37
2017-01-07T14:07:21.275Z,1015.33
2017-01-07T14:08:32.608Z,1015.31
2017-01-07T14:09:43.501Z,1015.37
2017-01-07T14:10:54.435Z,1015.35
2017-01-07T14:12:05.836Z,1015.33
2017-01-07T14:13:16.897Z,1015.37
2017-01-07T14:14:26.986Z,1015.36
2017-01-07T14:15:37.932Z,1015.34
2017-01-07T14:16:48.945Z,1015.29
2017-01-07T14:17:59.490Z,1015.29
2017-01-07T14:19:10.103Z,1015.24
2017-01-07T14:20:21.436Z,1015.25
2017-01-07T14:21:31.709Z,1015.22
2017-01-07T14:22:43.351Z,1015.22
2017-01-07T14:23:53.832Z,1015.26
2017-01-07T14:25:04.657Z,1015.27
2017-01-07T14:26:16.015Z,1015.24
2017-01-07T14:27:26.160Z,1015.24
2017-01-07T14:28:37.352Z,1015.3
2017-01-07T14:29:48.178Z,1015.3
2017-01-07T14:30:58.876Z,1015.33
2017-01-07T14:32:09.041Z,1015.3
2017-01-07T14:33:20.194Z,1015.31
2017-01-07T14:34:30.082Z,1015.27
2017-01-07T14:35:40.276Z,1015.25
2017-01-07T14:36:50.961Z,1015.28
2017-01-07T14:38:02.127Z,1015.33
2017-01-07T14:39:12.696Z,1015.31
2017-01-07T14:40:22.885Z,1015.36
2017-01-07T14:41:32.927Z,1015.27
2017-01-07T14:42:43.827Z,1015.2
2017-01-07T14:43:54.716Z,1015.21
2017-01-07T14:45:06.049Z,1015.17
2017-01-07T14:46:16.951Z,1015.16
2017-01-07T14:47:27.900Z,1015.11
2017-01-07T14:48:39.225Z,1015.1
2017-01-07T14:49:49.754Z,1015.03
2017-01-07T14:51:00.655Z,1015.04
2017-01-07T14:52:11.988Z,1015.06
2017-01-07T14:53:23.366Z,1015.06
2017-01-07T14:54:33.839Z,1015.07
2017-01-07T14:55:45.168Z,1015.07
2017-01-07T14:56:56.493Z,1015.07
2017-01-07T14:58:07.394Z,1015.08
2017-01-07T14:59:17.916Z,1015.09
2017-01-07T15:00:29.241Z,1015.06
2017-01-07T15:01:40.570Z,1015.12
2017-01-07T15:02:51.899Z,1015.1
2017-01-07T15:04:02.800Z,1015.13
2017-01-07T15:05:13.757Z,1015.14
2017-01-07T15:06:25.075Z,1015.16
2017-01-07T15:07:35.976Z,1015.13
2017-01-07T15:08:47.305Z,1015.15
2017-01-07T15:09:58.202Z,1015.16
2017-01-07T15:11:09.575Z,1015.1
2017-01-07T15:12:20.780Z,1015.02
2017-01-07T15:13:32.146Z,1015.04
2017-01-07T15:14:42.811Z,1014.96
2017-01-07T15:15:53.496Z,1014.93
2017-01-07T15:17:04.949Z,1014.96
2017-01-07T15:18:15.426Z,1015.03
2017-01-07T15:19:26.336Z,1015.01
2017-01-07T15:20:37.233Z,1015.05
2017-01-07T15:21:48.566Z,1015.1
2017-01-07T15:22:59.955Z,1015.1
2017-01-07T15:24:10.852Z,1015.09
2017-01-07T15:25:21.745Z,1014.97
2017-01-07T15:26:33.078Z,1015
2017-01-07T15:27:43.967Z,1014.97
2017-01-07T15:28:54.924Z,1014.95
2017-01-07T15:30:05.821Z,1014.93
2017-01-07T15:31:16.719Z,1014.9
2017-01-07T15:32:27.620Z,1014.88
2017-01-07T15:33:38.948Z,1014.86
2017-01-07T15:34:49.909Z,1014.89
2017-01-07T15:36:00.811Z,1014.86
2017-01-07T15:37:11.280Z,1015.01
2017-01-07T15:38:22.609Z,1014.96
2017-01-07T15:39:33.938Z,1014.98
2017-01-07T15:40:45.307Z,1014.96
2017-01-07T15:41:56.203Z,1014.97
2017-01-07T15:43:06.672Z,1015
2017-01-07T15:44:17.150Z,1014.99
2017-01-07T15:45:28.047Z,1014.99
2017-01-07T15:46:39.424Z,1014.98
2017-01-07T15:47:50.325Z,1014.98
2017-01-07T15:49:01.222Z,1014.93
2017-01-07T15:50:12.554Z,1014.9
2017-01-07T15:51:23.880Z,1014.88
2017-01-07T15:52:34.829Z,1014.83
2017-01-07T15:53:45.726Z,1014.81
2017-01-07T15:54:57.063Z,1014.81
2017-01-07T15:56:08.388Z,1014.84
2017-01-07T15:57:19.285Z,1014.88
2017-01-07T15:58:29.838Z,1014.83
2017-01-07T15:59:40.743Z,1014.8
2017-01-07T16:00:51.649Z,1014.79
2017-01-07T16:02:02.973Z,1014.75
2017-01-07T16:03:13.866Z,1014.81
2017-01-07T16:04:25.259Z,1014.81
2017-01-07T16:05:36.156Z,1014.79
2017-01-07T16:06:47.482Z,1014.8
2017-01-07T16:07:58.811Z,1014.78
2017-01-07T16:09:09.716Z,1014.78
2017-01-07T16:10:21.192Z,1014.76
2017-01-07T16:11:32.097Z,1014.77
2017-01-07T16:12:42.995Z,1014.72
2017-01-07T16:13:53.904Z,1014.65
2017-01-07T16:15:04.797Z,1014.58
2017-01-07T16:16:15.746Z,1014.63
2017-01-07T16:17:27.071Z,1014.63
2017-01-07T16:18:37.972Z,1014.6
2017-01-07T16:19:48.866Z,1014.62
2017-01-07T16:21:00.194Z,1014.6
2017-01-07T16:22:11.571Z,1014.57
2017-01-07T16:23:22.468Z,1014.6
2017-01-07T16:24:33.797Z,1014.61
2017-01-07T16:25:44.711Z,1014.64
2017-01-07T16:26:56.032Z,1014.69
2017-01-07T16:28:06.973Z,1014.75
2017-01-07T16:29:18.298Z,1014.82
2017-01-07T16:30:29.195Z,1014.74
2017-01-07T16:31:40.108Z,1014.65
2017-01-07T16:32:51.009Z,1014.66
2017-01-07T16:34:01.958Z,1014.68
2017-01-07T16:35:13.287Z,1014.68
2017-01-07T16:36:24.608Z,1014.69
2017-01-07T16:37:35.929Z,1014.67
2017-01-07T16:38:46.834Z,1014.65
2017-01-07T16:39:57.360Z,1014.7
2017-01-07T16:41:08.261Z,1014.71
2017-01-07T16:42:19.598Z,1014.71
2017-01-07T16:43:30.927Z,1014.77
2017-01-07T16:44:41.828Z,1014.77
2017-01-07T16:45:52.781Z,1014.77
2017-01-07T16:47:04.114Z,1014.71
2017-01-07T16:48:15.463Z,1014.72
2017-01-07T16:49:26.352Z,1014.74
2017-01-07T16:50:37.681Z,1014.74
2017-01-07T16:51:48.689Z,1014.71
2017-01-07T16:53:00.012Z,1014.75
2017-01-07T16:54:11.341Z,1014.77
2017-01-07T16:55:22.671Z,1014.76
2017-01-07T16:56:33.575Z,1014.71
2017-01-07T16:57:44.517Z,1014.72
2017-01-07T16:58:55.843Z,1014.68
2017-01-07T17:00:06.756Z,1014.65
2017-01-07T17:01:18.082Z,1014.68
2017-01-07T17:02:28.978Z,1014.68
2017-01-07T17:03:39.927Z,1014.67
2017-01-07T17:04:50.828Z,1014.7
2017-01-07T17:06:02.149Z,1014.66
2017-01-07T17:07:13.474Z,1014.57
2017-01-07T17:08:24.804Z,1014.59
2017-01-07T17:09:35.325Z,1014.62
2017-01-07T17:10:46.658Z,1014.57
2017-01-07T17:11:57.979Z,1014.65
2017-01-07T17:13:09.300Z,1014.63
2017-01-07T17:14:20.186Z,1014.63
2017-01-07T17:15:31.139Z,1014.62
2017-01-07T17:16:42.040Z,1014.59
2017-01-07T17:17:53.370Z,1014.6
2017-01-07T17:19:04.267Z,1014.59
2017-01-07T17:20:15.596Z,1014.6
2017-01-07T17:21:26.549Z,1014.56
2017-01-07T17:22:37.451Z,1014.57
2017-01-07T17:23:48.772Z,1014.59
2017-01-07T17:25:00.105Z,1014.58
2017-01-07T17:26:10.578Z,1014.54
2017-01-07T17:27:21.535Z,1014.65
2017-01-07T17:28:32.869Z,1014.65
2017-01-07T17:29:43.774Z,1014.68
2017-01-07T17:30:55.095Z,1014.69
2017-01-07T17:32:06.001Z,1014.71
2017-01-07T17:33:17.374Z,1014.66
2017-01-07T17:34:28.276Z,1014.71
2017-01-07T17:35:38.749Z,1014.69
2017-01-07T17:36:49.670Z,1014.7
2017-01-07T17:38:00.559Z,1014.71
2017-01-07T17:39:11.937Z,1014.69
2017-01-07T17:40:22.842Z,1014.7
2017-01-07T17:41:33.307Z,1014.65
2017-01-07T17:42:44.641Z,1014.63
2017-01-07T17:43:55.546Z,1014.6
2017-01-07T17:45:06.923Z,1014.64
2017-01-07T17:46:17.820Z,1014.67
2017-01-07T17:47:29.145Z,1014.64
2017-01-07T17:48:40.474Z,1014.54
2017-01-07T17:49:51.383Z,1014.57
2017-01-07T17:51:02.769Z,1014.6
2017-01-07T17:52:13.662Z,1014.62
2017-01-07T17:53:24.567Z,1014.59
2017-01-07T17:54:35.528Z,1014.55
2017-01-07T17:55:46.873Z,1014.55
2017-01-07T17:56:57.828Z,1014.5
2017-01-07T17:58:08.728Z,1014.52
2017-01-07T17:59:20.057Z,1014.45
2017-01-07T18:00:31.006Z,1014.38
2017-01-07T18:01:42.331Z,1014.33
2017-01-07T18:02:53.236Z,1014.35
2017-01-07T18:04:04.130Z,1014.32
2017-01-07T18:05:15.035Z,1014.34
2017-01-07T18:06:25.992Z,1014.33
2017-01-07T18:07:36.901Z,1014.3
2017-01-07T18:08:48.230Z,1014.36
2017-01-07T18:09:59.560Z,1014.36
2017-01-07T18:11:10.489Z,1014.35
2017-01-07T18:12:21.862Z,1014.38
2017-01-07T18:13:32.766Z,1014.39
2017-01-07T18:14:43.241Z,1014.4
2017-01-07T18:15:54.138Z,1014.47
2017-01-07T18:17:05.471Z,1014.43
2017-01-07T18:18:16.424Z,1014.42
2017-01-07T18:19:27.321Z,1014.34
2017-01-07T18:20:38.218Z,1014.34
2017-01-07T18:21:49.152Z,1014.35
2017-01-07T18:23:00.481Z,1014.37
2017-01-07T18:24:11.426Z,1014.31
2017-01-07T18:25:22.747Z,1014.33
2017-01-07T18:26:34.076Z,1014.35
2017-01-07T18:27:44.974Z,1014.34
2017-01-07T18:28:55.883Z,1014.29
2017-01-07T18:30:05.968Z,1014.31
2017-01-07T18:31:16.865Z,1014.32
2017-01-07T18:32:27.791Z,1014.29
2017-01-07T18:33:39.116Z,1014.3
2017-01-07T18:34:50.441Z,1014.28
2017-01-07T18:36:01.817Z,1014.34
2017-01-07T18:37:13.152Z,1014.3
2017-01-07T18:38:24.053Z,1014.24
2017-01-07T18:39:34.954Z,1014.26
2017-01-07T18:40:45.847Z,1014.26
2017-01-07T18:41:57.217Z,1014.26
2017-01-07T18:43:08.118Z,1014.25
2017-01-07T18:44:19.444Z,1014.22
2017-01-07T18:45:30.349Z,1014.19
2017-01-07T18:46:41.250Z,1014.17
2017-01-07T18:47:52.203Z,1014.19
2017-01-07T18:49:03.533Z,1014.18
2017-01-07T18:50:14.874Z,1014.19
2017-01-07T18:51:26.204Z,1014.17
2017-01-07T18:52:37.532Z,1014.16
2017-01-07T18:53:48.482Z,1014.16
2017-01-07T18:54:59.383Z,1014.22
2017-01-07T18:56:10.712Z,1014.21
2017-01-07T18:57:21.605Z,1014.25
2017-01-07T18:58:32.931Z,1014.19
2017-01-07T18:59:43.940Z,1014.14
2017-01-07T19:00:55.257Z,1014.08
2017-01-07T19:02:06.154Z,1014.06
2017-01-07T19:03:17.480Z,1014
2017-01-07T19:04:28.385Z,1014.02
2017-01-07T19:05:39.758Z,1014
2017-01-07T19:06:50.668Z,1014.09
2017-01-07T19:08:01.992Z,1014.08
2017-01-07T19:09:13.318Z,1014.08
2017-01-07T19:10:24.219Z,1014.06
2017-01-07T19:11:35.316Z,1014.05
2017-01-07T19:12:46.214Z,1014.04
2017-01-07T19:13:57.123Z,1014.01
2017-01-07T19:15:08.025Z,1014.02
2017-01-07T19:16:18.500Z,1014.04
2017-01-07T19:17:29.870Z,1014.05
2017-01-07T19:18:40.759Z,1014.1
2017-01-07T19:19:51.652Z,1014.07
2017-01-07T19:21:02.573Z,1014.08
2017-01-07T19:22:13.902Z,1014.07
2017-01-07T19:23:24.856Z,1014.11
2017-01-07T19:24:36.185Z,1014.1
2017-01-07T19:25:47.082Z,1014.05
2017-01-07T19:26:57.983Z,1014.07
2017-01-07T19:28:08.888Z,1014.07
2017-01-07T19:29:19.837Z,1014.08
2017-01-07T19:30:31.162Z,1014.08
2017-01-07T19:31:42.503Z,1014.07
2017-01-07T19:32:53.404Z,1014.07
2017-01-07T19:34:04.730Z,1014.09
2017-01-07T19:35:16.103Z,1014.1
2017-01-07T19:36:27.004Z,1014.08
2017-01-07T19:37:37.897Z,1014.11
2017-01-07T19:38:49.218Z,1014.08
2017-01-07T19:40:00.579Z,1014.08
2017-01-07T19:41:11.948Z,1014.08
2017-01-07T19:42:22.849Z,1014.11
2017-01-07T19:43:33.770Z,1014.08
2017-01-07T19:44:44.679Z,1014.04
2017-01-07T19:45:55.581Z,1014.02
2017-01-07T19:47:06.526Z,1014.04
2017-01-07T19:48:17.851Z,1014.06
2017-01-07T19:49:28.753Z,1014.03
2017-01-07T19:50:40.069Z,1014.03
2017-01-07T19:51:51.397Z,1014.01
2017-01-07T19:53:02.496Z,1014.01
2017-01-07T19:54:13.821Z,1013.98
2017-01-07T19:55:25.142Z,1013.99
2017-01-07T19:56:36.468Z,1014.01
2017-01-07T19:57:47.865Z,1013.97
2017-01-07T19:58:58.826Z,1013.97
2017-01-07T20:00:10.159Z,1013.91
2017-01-07T20:01:21.476Z,1013.92
2017-01-07T20:02:32.374Z,1013.82
2017-01-07T20:03:43.271Z,1013.85
2017-01-07T20:04:54.644Z,1013.82
2017-01-07T20:06:06.038Z,1013.85
2017-01-07T20:07:16.938Z,1013.84
2017-01-07T20:08:27.835Z,1013.81
2017-01-07T20:09:39.177Z,1013.81
2017-01-07T20:10:50.122Z,1013.81
2017-01-07T20:12:01.447Z,1013.83
2017-01-07T20:13:12.368Z,1013.81
2017-01-07T20:14:22.845Z,1013.86
2017-01-07T20:15:33.743Z,1013.79
2017-01-07T20:16:44.692Z,1013.83
2017-01-07T20:17:56.041Z,1013.89
2017-01-07T20:19:07.327Z,1013.93
2017-01-07T20:20:18.651Z,1013.97
2017-01-07T20:21:29.553Z,1013.99
2017-01-07T20:22:40.926Z,1014.01
2017-01-07T20:23:52.247Z,1013.98
2017-01-07T20:25:03.144Z,1013.95
2017-01-07T20:26:14.049Z,1013.97
2017-01-07T20:27:24.526Z,1013.95
2017-01-07T20:28:34.636Z,1013.87
2017-01-07T20:29:45.977Z,1013.86
2017-01-07T20:30:56.147Z,1013.9
2017-01-07T20:32:07.043Z,1013.89
2017-01-07T20:33:18.393Z,1013.9
2017-01-07T20:34:29.778Z,1013.93
2017-01-07T20:35:40.687Z,1013.88
2017-01-07T20:36:52.024Z,1013.91
2017-01-07T20:38:03.353Z,1013.93
2017-01-07T20:39:14.679Z,1013.91
2017-01-07T20:40:25.380Z,1013.89
2017-01-07T20:41:36.285Z,1013.9
2017-01-07T20:42:46.762Z,1013.92
2017-01-07T20:43:58.092Z,1013.95
2017-01-07T20:45:09.421Z,1013.96
2017-01-07T20:46:20.370Z,1013.96
2017-01-07T20:47:30.863Z,1013.98
2017-01-07T20:48:41.768Z,1013.99
2017-01-07T20:49:52.669Z,1014
2017-01-07T20:51:03.567Z,1013.95
2017-01-07T20:52:14.512Z,1013.99
2017-01-07T20:53:25.845Z,1014.02
2017-01-07T20:54:37.202Z,1014.07
2017-01-07T20:55:48.099Z,1014.1
2017-01-07T20:56:59.001Z,1014.07
2017-01-07T20:58:10.378Z,1014.08
2017-01-07T20:59:21.283Z,1014.09
2017-01-07T21:00:32.207Z,1014.09
2017-01-07T21:01:42.685Z,1014.06
2017-01-07T21:02:54.022Z,1014.07
2017-01-07T21:04:05.400Z,1014.02
2017-01-07T21:05:16.741Z,1014.08
2017-01-07T21:06:27.234Z,1014.13
2017-01-07T21:07:38.555Z,1014.16
2017-01-07T21:08:49.469Z,1014.21
2017-01-07T21:10:00.438Z,1014.19
2017-01-07T21:11:11.335Z,1014.19
2017-01-07T21:12:22.664Z,1014.23
2017-01-07T21:13:33.161Z,1014.2
2017-01-07T21:14:44.487Z,1014.21
2017-01-07T21:15:55.428Z,1014.22
2017-01-07T21:17:06.741Z,1014.19
2017-01-07T21:18:22.910Z,1014.18
2017-01-07T21:19:33.820Z,1014.18
2017-01-07T21:20:45.145Z,1014.18
2017-01-07T21:21:56.518Z,1014.16
2017-01-07T21:23:07.427Z,1014.08
2017-01-07T21:24:18.744Z,1014.1
2017-01-07T21:25:30.069Z,1014.1
2017-01-07T21:26:40.595Z,1014.07
2017-01-07T21:27:51.924Z,1014
2017-01-07T21:29:03.265Z,1014.03
2017-01-07T21:30:14.591Z,1014
2017-01-07T21:31:28.509Z,1014.01
2017-01-07T21:32:39.463Z,1014.02
2017-01-07T21:33:50.790Z,1014.06
2017-01-07T21:35:01.687Z,1014.04
2017-01-07T21:36:13.024Z,1014.04
2017-01-07T21:37:24.081Z,1014.03
2017-01-07T21:38:35.118Z,1013.97
2017-01-07T21:39:46.024Z,1013.96
2017-01-07T21:40:56.917Z,1013.98
2017-01-07T21:42:08.254Z,1014
2017-01-07T21:43:19.579Z,1013.99
2017-01-07T21:44:30.528Z,1013.99
2017-01-07T21:45:41.429Z,1014.02
2017-01-07T21:46:52.330Z,1014.04
2017-01-07T21:48:02.811Z,1014.02
2017-01-07T21:49:13.613Z,1013.99
2017-01-07T21:50:25.549Z,1013.99
2017-01-07T21:51:36.931Z,1013.98
2017-01-07T21:52:47.836Z,1013.99
2017-01-07T21:53:59.169Z,1014
2017-01-07T21:55:10.070Z,1013.94
2017-01-07T21:56:21.016Z,1013.92
2017-01-07T21:57:31.916Z,1013.88
2017-01-07T21:58:43.246Z,1013.87
2017-01-07T21:59:54.143Z,1013.93
2017-01-07T22:01:05.048Z,1013.93
2017-01-07T22:02:15.998Z,1013.9
2017-01-07T22:03:26.467Z,1013.91
